sensor_id;sensor_type;location;lat;lon;timestamp;P1;durP1;ratioP1;P2;durP2;ratioP2
7511;SDS011;9999;48.780;9.146;2023-07-02T00:02:07;1.27;;;0.55;;
7511;SDS011;9999;48.780;9.146;2023-07-02T00:04:33;0.82;;;0.82;;
7511;SDS011;9999;48.780;9.146;2023-07-02T00:07:02;1.00;;;0.90;;
7511;SDS011;9999;48.780;9.146;2023-07-02T00:09:29;0.38;;;0.38;;
7511;SDS011;9999;48.780;9.146;2023-07-02T00:11:56;0.77;;;0.77;;
7511;SDS011;9999;48.780;9.146;2023-07-02T00:14:23;0.35;;;0.35;;
7511;SDS011;9999;48.780;9.146;2023-07-02T00:16:50;0.75;;;0.75;;
7511;SDS011;9999;48.780;9.146;2023-07-02T00:19:17;0.40;;;0.40;;
7511;SDS011;9999;48.780;9.146;2023-07-02T00:21:44;0.30;;;0.30;;
7511;SDS011;9999;48.780;9.146;2023-07-02T00:24:12;0.50;;;0.50;;
7511;SDS011;9999;48.780;9.146;2023-07-02T00:26:38;0.43;;;0.43;;
7511;SDS011;9999;48.780;9.146;2023-07-02T00:29:09;0.40;;;0.40;;
7511;SDS011;9999;48.780;9.146;2023-07-02T00:31:37;0.55;;;0.38;;
7511;SDS011;9999;48.780;9.146;2023-07-02T00:34:04;0.93;;;0.93;;
7511;SDS011;9999;48.780;9.146;2023-07-02T00:36:31;0.40;;;0.40;;
7511;SDS011;9999;48.780;9.146;2023-07-02T00:38:58;0.25;;;0.25;;
7511;SDS011;9999;48.780;9.146;2023-07-02T00:41:26;0.40;;;0.40;;
7511;SDS011;9999;48.780;9.146;2023-07-02T00:43:53;5.03;;;0.73;;
7511;SDS011;9999;48.780;9.146;2023-07-02T00:46:21;0.45;;;0.45;;
7511;SDS011;9999;48.780;9.146;2023-07-02T00:48:51;0.20;;;0.20;;
7511;SDS011;9999;48.780;9.146;2023-07-02T00:51:20;0.70;;;0.70;;
7511;SDS011;9999;48.780;9.146;2023-07-02T00:53:49;4.35;;;1.05;;
7511;SDS011;9999;48.780;9.146;2023-07-02T00:56:17;0.93;;;0.88;;
7511;SDS011;9999;48.780;9.146;2023-07-02T00:58:48;0.43;;;0.43;;
7511;SDS011;9999;48.780;9.146;2023-07-02T01:01:16;0.32;;;0.32;;
7511;SDS011;9999;48.780;9.146;2023-07-02T01:03:50;0.93;;;0.60;;
7511;SDS011;9999;48.780;9.146;2023-07-02T01:06:19;0.30;;;0.30;;
7511;SDS011;9999;48.780;9.146;2023-07-02T01:08:51;0.90;;;0.85;;
7511;SDS011;9999;48.780;9.146;2023-07-02T01:11:19;0.68;;;0.68;;
7511;SDS011;9999;48.780;9.146;2023-07-02T01:13:51;0.40;;;0.40;;
7511;SDS011;9999;48.780;9.146;2023-07-02T01:16:21;0.60;;;0.60;;
7511;SDS011;9999;48.780;9.146;2023-07-02T01:18:49;0.95;;;0.90;;
7511;SDS011;9999;48.780;9.146;2023-07-02T01:21:22;0.73;;;0.73;;
7511;SDS011;9999;48.780;9.146;2023-07-02T01:23:50;0.47;;;0.47;;
7511;SDS011;9999;48.780;9.146;2023-07-02T01:26:17;0.30;;;0.30;;
7511;SDS011;9999;48.780;9.146;2023-07-02T01:28:45;0.32;;;0.32;;
7511;SDS011;9999;48.780;9.146;2023-07-02T01:31:12;0.47;;;0.47;;
7511;SDS011;9999;48.780;9.146;2023-07-02T01:33:40;0.60;;;0.60;;
7511;SDS011;9999;48.780;9.146;2023-07-02T01:36:07;0.50;;;0.50;;
7511;SDS011;9999;48.780;9.146;2023-07-02T01:38:36;1.90;;;0.60;;
7511;SDS011;9999;48.780;9.146;2023-07-02T01:41:03;0.85;;;0.68;;
7511;SDS011;9999;48.780;9.146;2023-07-02T01:43:30;1.27;;;0.77;;
7511;SDS011;9999;48.780;9.146;2023-07-02T01:45:57;2.22;;;0.47;;
7511;SDS011;9999;48.780;9.146;2023-07-02T01:48:24;0.40;;;0.40;;
7511;SDS011;9999;48.780;9.146;2023-07-02T01:50:52;0.88;;;0.50;;
7511;SDS011;9999;48.780;9.146;2023-07-02T01:53:19;0.55;;;0.55;;
7511;SDS011;9999;48.780;9.146;2023-07-02T01:55:47;0.73;;;0.73;;
7511;SDS011;9999;48.780;9.146;2023-07-02T01:58:14;0.93;;;0.90;;
7511;SDS011;9999;48.780;9.146;2023-07-02T02:00:41;0.50;;;0.50;;
7511;SDS011;9999;48.780;9.146;2023-07-02T02:03:07;0.90;;;0.73;;
7511;SDS011;9999;48.780;9.146;2023-07-02T02:05:34;0.70;;;0.70;;
7511;SDS011;9999;48.780;9.146;2023-07-02T02:08:01;0.55;;;0.52;;
7511;SDS011;9999;48.780;9.146;2023-07-02T02:10:28;0.75;;;0.70;;
7511;SDS011;9999;48.780;9.146;2023-07-02T02:12:56;0.57;;;0.52;;
7511;SDS011;9999;48.780;9.146;2023-07-02T02:15:23;0.17;;;0.17;;
7511;SDS011;9999;48.780;9.146;2023-07-02T02:17:50;1.33;;;1.08;;
7511;SDS011;9999;48.780;9.146;2023-07-02T02:20:17;0.70;;;0.70;;
7511;SDS011;9999;48.780;9.146;2023-07-02T02:22:44;0.88;;;0.63;;
7511;SDS011;9999;48.780;9.146;2023-07-02T02:25:11;0.70;;;0.70;;
7511;SDS011;9999;48.780;9.146;2023-07-02T02:27:38;1.35;;;1.25;;
7511;SDS011;9999;48.780;9.146;2023-07-02T02:30:08;0.68;;;0.65;;
7511;SDS011;9999;48.780;9.146;2023-07-02T02:32:35;0.65;;;0.47;;
7511;SDS011;9999;48.780;9.146;2023-07-02T02:35:03;0.40;;;0.40;;
7511;SDS011;9999;48.780;9.146;2023-07-02T02:37:35;0.35;;;0.35;;
7511;SDS011;9999;48.780;9.146;2023-07-02T02:40:04;0.70;;;0.40;;
7511;SDS011;9999;48.780;9.146;2023-07-02T02:42:32;0.47;;;0.47;;
7511;SDS011;9999;48.780;9.146;2023-07-02T02:45:00;0.30;;;0.30;;
7511;SDS011;9999;48.780;9.146;2023-07-02T02:47:28;0.75;;;0.45;;
7511;SDS011;9999;48.780;9.146;2023-07-02T02:49:55;0.43;;;0.43;;
7511;SDS011;9999;48.780;9.146;2023-07-02T02:52:22;0.95;;;0.73;;
7511;SDS011;9999;48.780;9.146;2023-07-02T02:54:52;2.40;;;0.50;;
7511;SDS011;9999;48.780;9.146;2023-07-02T02:57:19;13.05;;;1.38;;
7511;SDS011;9999;48.780;9.146;2023-07-02T02:59:46;0.38;;;0.38;;
7511;SDS011;9999;48.780;9.146;2023-07-02T03:02:13;0.57;;;0.57;;
7511;SDS011;9999;48.780;9.146;2023-07-02T03:04:41;1.08;;;1.08;;
7511;SDS011;9999;48.780;9.146;2023-07-02T03:07:09;2.10;;;0.95;;
7511;SDS011;9999;48.780;9.146;2023-07-02T03:09:36;0.50;;;0.50;;
7511;SDS011;9999;48.780;9.146;2023-07-02T03:12:04;0.75;;;0.75;;
7511;SDS011;9999;48.780;9.146;2023-07-02T03:14:32;0.35;;;0.35;;
7511;SDS011;9999;48.780;9.146;2023-07-02T03:16:59;0.35;;;0.35;;
7511;SDS011;9999;48.780;9.146;2023-07-02T03:19:26;0.63;;;0.63;;
7511;SDS011;9999;48.780;9.146;2023-07-02T03:21:54;2.92;;;1.00;;
7511;SDS011;9999;48.780;9.146;2023-07-02T03:24:21;0.80;;;0.63;;
7511;SDS011;9999;48.780;9.146;2023-07-02T03:26:48;2.63;;;1.27;;
7511;SDS011;9999;48.780;9.146;2023-07-02T03:29:15;1.08;;;0.50;;
7511;SDS011;9999;48.780;9.146;2023-07-02T03:31:44;0.98;;;0.98;;
7511;SDS011;9999;48.780;9.146;2023-07-02T03:34:11;1.45;;;1.30;;
7511;SDS011;9999;48.780;9.146;2023-07-02T03:36:38;1.98;;;1.13;;
7511;SDS011;9999;48.780;9.146;2023-07-02T03:39:06;0.70;;;0.70;;
7511;SDS011;9999;48.780;9.146;2023-07-02T03:41:33;0.43;;;0.43;;
7511;SDS011;9999;48.780;9.146;2023-07-02T03:44:00;0.52;;;0.52;;
7511;SDS011;9999;48.780;9.146;2023-07-02T03:46:27;1.00;;;1.00;;
7511;SDS011;9999;48.780;9.146;2023-07-02T03:48:55;0.73;;;0.70;;
7511;SDS011;9999;48.780;9.146;2023-07-02T03:51:22;0.98;;;0.98;;
7511;SDS011;9999;48.780;9.146;2023-07-02T03:53:49;0.28;;;0.28;;
7511;SDS011;9999;48.780;9.146;2023-07-02T03:56:17;0.40;;;0.40;;
7511;SDS011;9999;48.780;9.146;2023-07-02T03:58:44;0.47;;;0.47;;
7511;SDS011;9999;48.780;9.146;2023-07-02T04:01:10;0.50;;;0.50;;
7511;SDS011;9999;48.780;9.146;2023-07-02T04:03:37;1.23;;;0.93;;
7511;SDS011;9999;48.780;9.146;2023-07-02T04:06:04;6.50;;;1.42;;
7511;SDS011;9999;48.780;9.146;2023-07-02T04:08:31;1.17;;;0.70;;
7511;SDS011;9999;48.780;9.146;2023-07-02T04:10:59;0.75;;;0.63;;
7511;SDS011;9999;48.780;9.146;2023-07-02T04:13:27;0.85;;;0.75;;
7511;SDS011;9999;48.780;9.146;2023-07-02T04:15:54;0.85;;;0.85;;
7511;SDS011;9999;48.780;9.146;2023-07-02T04:18:21;4.13;;;1.75;;
7511;SDS011;9999;48.780;9.146;2023-07-02T04:20:47;0.85;;;0.85;;
7511;SDS011;9999;48.780;9.146;2023-07-02T04:23:14;0.65;;;0.65;;
7511;SDS011;9999;48.780;9.146;2023-07-02T04:25:41;0.52;;;0.52;;
7511;SDS011;9999;48.780;9.146;2023-07-02T04:28:08;1.05;;;0.98;;
7511;SDS011;9999;48.780;9.146;2023-07-02T04:30:36;0.73;;;0.70;;
7511;SDS011;9999;48.780;9.146;2023-07-02T04:33:03;0.38;;;0.38;;
7511;SDS011;9999;48.780;9.146;2023-07-02T04:35:30;0.25;;;0.25;;
7511;SDS011;9999;48.780;9.146;2023-07-02T04:37:57;1.55;;;1.33;;
7511;SDS011;9999;48.780;9.146;2023-07-02T04:40:24;0.55;;;0.55;;
7511;SDS011;9999;48.780;9.146;2023-07-02T04:42:51;0.98;;;0.98;;
7511;SDS011;9999;48.780;9.146;2023-07-02T04:45:23;1.20;;;0.65;;
7511;SDS011;9999;48.780;9.146;2023-07-02T04:47:52;1.45;;;1.35;;
7511;SDS011;9999;48.780;9.146;2023-07-02T04:50:19;1.65;;;1.45;;
7511;SDS011;9999;48.780;9.146;2023-07-02T04:52:46;0.98;;;0.98;;
7511;SDS011;9999;48.780;9.146;2023-07-02T04:55:12;0.40;;;0.40;;
7511;SDS011;9999;48.780;9.146;2023-07-02T04:57:39;1.05;;;0.98;;
7511;SDS011;9999;48.780;9.146;2023-07-02T05:00:06;1.15;;;1.05;;
7511;SDS011;9999;48.780;9.146;2023-07-02T05:02:34;0.47;;;0.47;;
7511;SDS011;9999;48.780;9.146;2023-07-02T05:05:02;0.77;;;0.77;;
7511;SDS011;9999;48.780;9.146;2023-07-02T05:07:30;12.73;;;2.22;;
7511;SDS011;9999;48.780;9.146;2023-07-02T05:09:56;0.55;;;0.55;;
7511;SDS011;9999;48.780;9.146;2023-07-02T05:12:23;1.30;;;0.90;;
7511;SDS011;9999;48.780;9.146;2023-07-02T05:14:50;0.30;;;0.30;;
7511;SDS011;9999;48.780;9.146;2023-07-02T05:17:17;0.30;;;0.30;;
7511;SDS011;9999;48.780;9.146;2023-07-02T05:19:43;1.88;;;0.73;;
7511;SDS011;9999;48.780;9.146;2023-07-02T05:22:11;0.80;;;0.80;;
7511;SDS011;9999;48.780;9.146;2023-07-02T05:24:39;2.78;;;1.27;;
7511;SDS011;9999;48.780;9.146;2023-07-02T05:27:06;1.33;;;1.23;;
7511;SDS011;9999;48.780;9.146;2023-07-02T05:29:33;1.50;;;1.40;;
7511;SDS011;9999;48.780;9.146;2023-07-02T05:32:00;3.10;;;1.45;;
7511;SDS011;9999;48.780;9.146;2023-07-02T05:34:27;1.70;;;1.60;;
7511;SDS011;9999;48.780;9.146;2023-07-02T05:36:53;0.65;;;0.63;;
7511;SDS011;9999;48.780;9.146;2023-07-02T05:39:21;0.52;;;0.52;;
7511;SDS011;9999;48.780;9.146;2023-07-02T05:41:49;0.30;;;0.30;;
7511;SDS011;9999;48.780;9.146;2023-07-02T05:44:16;1.52;;;1.35;;
7511;SDS011;9999;48.780;9.146;2023-07-02T05:46:43;0.57;;;0.57;;
7511;SDS011;9999;48.780;9.146;2023-07-02T05:49:10;2.08;;;1.30;;
7511;SDS011;9999;48.780;9.146;2023-07-02T05:51:37;1.58;;;0.93;;
7511;SDS011;9999;48.780;9.146;2023-07-02T05:54:04;0.88;;;0.77;;
7511;SDS011;9999;48.780;9.146;2023-07-02T05:56:32;0.77;;;0.77;;
7511;SDS011;9999;48.780;9.146;2023-07-02T05:58:59;0.70;;;0.68;;
7511;SDS011;9999;48.780;9.146;2023-07-02T06:01:26;0.65;;;0.65;;
7511;SDS011;9999;48.780;9.146;2023-07-02T06:03:53;2.65;;;1.02;;
7511;SDS011;9999;48.780;9.146;2023-07-02T06:06:20;4.43;;;1.95;;
7511;SDS011;9999;48.780;9.146;2023-07-02T06:08:49;1.23;;;1.15;;
7511;SDS011;9999;48.780;9.146;2023-07-02T06:11:16;1.10;;;1.10;;
7511;SDS011;9999;48.780;9.146;2023-07-02T06:13:45;1.13;;;1.10;;
7511;SDS011;9999;48.780;9.146;2023-07-02T06:16:12;1.20;;;0.55;;
7511;SDS011;9999;48.780;9.146;2023-07-02T06:18:38;1.27;;;1.05;;
7511;SDS011;9999;48.780;9.146;2023-07-02T06:21:06;2.45;;;1.65;;
7511;SDS011;9999;48.780;9.146;2023-07-02T06:23:39;3.15;;;1.48;;
7511;SDS011;9999;48.780;9.146;2023-07-02T06:26:06;11.38;;;2.95;;
7511;SDS011;9999;48.780;9.146;2023-07-02T06:28:33;2.05;;;1.95;;
7511;SDS011;9999;48.780;9.146;2023-07-02T06:31:01;1.08;;;1.05;;
7511;SDS011;9999;48.780;9.146;2023-07-02T06:33:28;1.55;;;1.45;;
7511;SDS011;9999;48.780;9.146;2023-07-02T06:35:55;1.88;;;1.75;;
7511;SDS011;9999;48.780;9.146;2023-07-02T06:38:22;2.08;;;1.17;;
7511;SDS011;9999;48.780;9.146;2023-07-02T06:40:49;1.55;;;1.33;;
7511;SDS011;9999;48.780;9.146;2023-07-02T06:43:15;6.93;;;1.65;;
7511;SDS011;9999;48.780;9.146;2023-07-02T06:45:42;11.65;;;1.85;;
7511;SDS011;9999;48.780;9.146;2023-07-02T06:48:10;1.85;;;1.48;;
7511;SDS011;9999;48.780;9.146;2023-07-02T06:50:42;2.30;;;1.10;;
7511;SDS011;9999;48.780;9.146;2023-07-02T06:53:09;2.47;;;2.28;;
7511;SDS011;9999;48.780;9.146;2023-07-02T06:55:36;2.00;;;1.85;;
7511;SDS011;9999;48.780;9.146;2023-07-02T06:58:04;9.18;;;2.97;;
7511;SDS011;9999;48.780;9.146;2023-07-02T07:00:31;2.75;;;2.08;;
7511;SDS011;9999;48.780;9.146;2023-07-02T07:02:58;1.35;;;1.25;;
7511;SDS011;9999;48.780;9.146;2023-07-02T07:05:26;2.75;;;1.75;;
7511;SDS011;9999;48.780;9.146;2023-07-02T07:07:53;4.20;;;2.13;;
7511;SDS011;9999;48.780;9.146;2023-07-02T07:10:20;4.13;;;2.15;;
7511;SDS011;9999;48.780;9.146;2023-07-02T07:12:47;1.38;;;1.17;;
7511;SDS011;9999;48.780;9.146;2023-07-02T07:15:13;2.45;;;2.22;;
7511;SDS011;9999;48.780;9.146;2023-07-02T07:17:40;3.63;;;2.47;;
7511;SDS011;9999;48.780;9.146;2023-07-02T07:20:08;3.47;;;2.25;;
7511;SDS011;9999;48.780;9.146;2023-07-02T07:22:36;8.00;;;2.78;;
7511;SDS011;9999;48.780;9.146;2023-07-02T07:25:04;2.33;;;2.20;;
7511;SDS011;9999;48.780;9.146;2023-07-02T07:27:31;2.30;;;2.08;;
7511;SDS011;9999;48.780;9.146;2023-07-02T07:29:58;5.55;;;2.75;;
7511;SDS011;9999;48.780;9.146;2023-07-02T07:32:25;2.78;;;1.83;;
7511;SDS011;9999;48.780;9.146;2023-07-02T07:34:51;5.40;;;1.90;;
7511;SDS011;9999;48.780;9.146;2023-07-02T07:37:18;7.20;;;2.45;;
7511;SDS011;9999;48.780;9.146;2023-07-02T07:39:46;3.30;;;2.47;;
7511;SDS011;9999;48.780;9.146;2023-07-02T07:42:14;2.58;;;2.38;;
7511;SDS011;9999;48.780;9.146;2023-07-02T07:44:41;4.40;;;2.38;;
7511;SDS011;9999;48.780;9.146;2023-07-02T07:47:08;3.63;;;2.25;;
7511;SDS011;9999;48.780;9.146;2023-07-02T07:49:35;1.77;;;1.67;;
7511;SDS011;9999;48.780;9.146;2023-07-02T07:52:02;4.35;;;2.65;;
7511;SDS011;9999;48.780;9.146;2023-07-02T07:54:31;10.60;;;2.90;;
7511;SDS011;9999;48.780;9.146;2023-07-02T07:57:01;3.30;;;2.60;;
7511;SDS011;9999;48.780;9.146;2023-07-02T07:59:28;2.53;;;2.00;;
7511;SDS011;9999;48.780;9.146;2023-07-02T08:01:54;3.15;;;2.65;;
7511;SDS011;9999;48.780;9.146;2023-07-02T08:04:21;4.43;;;2.90;;
7511;SDS011;9999;48.780;9.146;2023-07-02T08:06:48;3.47;;;2.47;;
7511;SDS011;9999;48.780;9.146;2023-07-02T08:09:15;4.25;;;2.42;;
7511;SDS011;9999;48.780;9.146;2023-07-02T08:11:41;2.20;;;2.03;;
7511;SDS011;9999;48.780;9.146;2023-07-02T08:14:10;4.68;;;2.88;;
7511;SDS011;9999;48.780;9.146;2023-07-02T08:16:36;3.25;;;2.22;;
7511;SDS011;9999;48.780;9.146;2023-07-02T08:19:03;12.30;;;4.13;;
7511;SDS011;9999;48.780;9.146;2023-07-02T08:21:30;4.90;;;3.08;;
7511;SDS011;9999;48.780;9.146;2023-07-02T08:23:57;3.45;;;2.40;;
7511;SDS011;9999;48.780;9.146;2023-07-02T08:26:24;9.00;;;2.28;;
7511;SDS011;9999;48.780;9.146;2023-07-02T08:28:50;6.05;;;1.60;;
7511;SDS011;9999;48.780;9.146;2023-07-02T08:31:19;3.42;;;2.83;;
7511;SDS011;9999;48.780;9.146;2023-07-02T08:33:45;3.00;;;2.75;;
7511;SDS011;9999;48.780;9.146;2023-07-02T08:36:12;3.20;;;2.30;;
7511;SDS011;9999;48.780;9.146;2023-07-02T08:38:39;4.78;;;2.53;;
7511;SDS011;9999;48.780;9.146;2023-07-02T08:41:08;5.53;;;2.88;;
7511;SDS011;9999;48.780;9.146;2023-07-02T08:43:35;3.17;;;2.75;;
7511;SDS011;9999;48.780;9.146;2023-07-02T08:46:02;2.50;;;2.13;;
7511;SDS011;9999;48.780;9.146;2023-07-02T08:48:30;2.25;;;2.03;;
7511;SDS011;9999;48.780;9.146;2023-07-02T08:50:57;12.18;;;3.88;;
7511;SDS011;9999;48.780;9.146;2023-07-02T08:53:24;6.15;;;3.60;;
7511;SDS011;9999;48.780;9.146;2023-07-02T08:55:54;11.48;;;2.22;;
7511;SDS011;9999;48.780;9.146;2023-07-02T08:58:22;2.95;;;2.70;;
7511;SDS011;9999;48.780;9.146;2023-07-02T09:01:04;17.40;;;3.40;;
7511;SDS011;9999;48.780;9.146;2023-07-02T09:03:33;2.88;;;2.67;;
7511;SDS011;9999;48.780;9.146;2023-07-02T09:06:02;3.80;;;1.90;;
7511;SDS011;9999;48.780;9.146;2023-07-02T09:08:29;3.28;;;1.75;;
7511;SDS011;9999;48.780;9.146;2023-07-02T09:11:05;3.88;;;2.70;;
7511;SDS011;9999;48.780;9.146;2023-07-02T09:13:41;3.85;;;3.05;;
7511;SDS011;9999;48.780;9.146;2023-07-02T09:16:19;3.25;;;1.98;;
7511;SDS011;9999;48.780;9.146;2023-07-02T09:18:58;2.72;;;2.17;;
7511;SDS011;9999;48.780;9.146;2023-07-02T09:21:27;3.75;;;2.20;;
7511;SDS011;9999;48.780;9.146;2023-07-02T09:23:54;2.03;;;1.33;;
7511;SDS011;9999;48.780;9.146;2023-07-02T09:26:22;5.88;;;3.22;;
7511;SDS011;9999;48.780;9.146;2023-07-02T09:28:49;7.05;;;3.45;;
7511;SDS011;9999;48.780;9.146;2023-07-02T09:31:16;3.47;;;2.28;;
7511;SDS011;9999;48.780;9.146;2023-07-02T09:33:43;5.10;;;3.17;;
7511;SDS011;9999;48.780;9.146;2023-07-02T09:36:12;20.58;;;3.35;;
7511;SDS011;9999;48.780;9.146;2023-07-02T09:38:39;4.65;;;2.40;;
7511;SDS011;9999;48.780;9.146;2023-07-02T09:41:06;6.03;;;2.22;;
7511;SDS011;9999;48.780;9.146;2023-07-02T09:43:34;4.80;;;3.20;;
7511;SDS011;9999;48.780;9.146;2023-07-02T09:46:01;2.83;;;1.70;;
7511;SDS011;9999;48.780;9.146;2023-07-02T09:48:29;2.97;;;2.33;;
7511;SDS011;9999;48.780;9.146;2023-07-02T09:51:01;1.38;;;1.27;;
7511;SDS011;9999;48.780;9.146;2023-07-02T09:53:31;2.60;;;2.40;;
7511;SDS011;9999;48.780;9.146;2023-07-02T09:55:58;5.75;;;3.25;;
7511;SDS011;9999;48.780;9.146;2023-07-02T09:58:25;5.15;;;2.53;;
7511;SDS011;9999;48.780;9.146;2023-07-02T10:00:52;8.77;;;3.10;;
7511;SDS011;9999;48.780;9.146;2023-07-02T10:03:27;3.42;;;2.03;;
7511;SDS011;9999;48.780;9.146;2023-07-02T10:06:02;4.80;;;2.47;;
7511;SDS011;9999;48.780;9.146;2023-07-02T10:08:32;4.93;;;2.65;;
7511;SDS011;9999;48.780;9.146;2023-07-02T10:11:09;2.17;;;1.98;;
7511;SDS011;9999;48.780;9.146;2023-07-02T10:13:36;2.47;;;2.25;;
7511;SDS011;9999;48.780;9.146;2023-07-02T10:16:04;4.00;;;2.72;;
7511;SDS011;9999;48.780;9.146;2023-07-02T10:18:31;2.78;;;1.70;;
7511;SDS011;9999;48.780;9.146;2023-07-02T10:20:59;2.75;;;1.45;;
7511;SDS011;9999;48.780;9.146;2023-07-02T10:23:34;4.28;;;2.45;;
7511;SDS011;9999;48.780;9.146;2023-07-02T10:26:13;4.53;;;2.78;;
7511;SDS011;9999;48.780;9.146;2023-07-02T10:28:41;6.57;;;2.70;;
7511;SDS011;9999;48.780;9.146;2023-07-02T10:31:17;5.47;;;3.80;;
7511;SDS011;9999;48.780;9.146;2023-07-02T10:33:45;3.80;;;2.33;;
7511;SDS011;9999;48.780;9.146;2023-07-02T10:36:19;3.30;;;2.45;;
7511;SDS011;9999;48.780;9.146;2023-07-02T10:38:48;4.38;;;2.13;;
7511;SDS011;9999;48.780;9.146;2023-07-02T10:41:25;4.15;;;1.98;;
7511;SDS011;9999;48.780;9.146;2023-07-02T10:43:52;2.53;;;2.17;;
7511;SDS011;9999;48.780;9.146;2023-07-02T10:46:20;4.57;;;2.10;;
7511;SDS011;9999;48.780;9.146;2023-07-02T10:48:51;2.38;;;2.15;;
7511;SDS011;9999;48.780;9.146;2023-07-02T10:51:18;1.77;;;1.67;;
7511;SDS011;9999;48.780;9.146;2023-07-02T10:53:47;2.85;;;2.30;;
7511;SDS011;9999;48.780;9.146;2023-07-02T10:56:22;2.60;;;1.85;;
7511;SDS011;9999;48.780;9.146;2023-07-02T10:58:49;3.03;;;1.90;;
7511;SDS011;9999;48.780;9.146;2023-07-02T11:01:21;5.82;;;2.97;;
7511;SDS011;9999;48.780;9.146;2023-07-02T11:03:55;3.88;;;2.50;;
7511;SDS011;9999;48.780;9.146;2023-07-02T11:06:23;2.80;;;2.10;;
7511;SDS011;9999;48.780;9.146;2023-07-02T11:08:51;5.97;;;2.60;;
7511;SDS011;9999;48.780;9.146;2023-07-02T11:11:20;3.67;;;1.70;;
7511;SDS011;9999;48.780;9.146;2023-07-02T11:13:47;11.77;;;3.60;;
7511;SDS011;9999;48.780;9.146;2023-07-02T11:16:18;2.25;;;1.42;;
7511;SDS011;9999;48.780;9.146;2023-07-02T11:18:47;1.60;;;1.50;;
7511;SDS011;9999;48.780;9.146;2023-07-02T11:21:14;4.18;;;2.85;;
7511;SDS011;9999;48.780;9.146;2023-07-02T11:23:41;3.17;;;2.58;;
7511;SDS011;9999;48.780;9.146;2023-07-02T11:26:09;4.78;;;2.33;;
7511;SDS011;9999;48.780;9.146;2023-07-02T11:28:46;7.15;;;2.75;;
7511;SDS011;9999;48.780;9.146;2023-07-02T11:31:14;5.75;;;2.75;;
7511;SDS011;9999;48.780;9.146;2023-07-02T11:33:50;3.50;;;2.42;;
7511;SDS011;9999;48.780;9.146;2023-07-02T11:36:19;3.50;;;2.53;;
7511;SDS011;9999;48.780;9.146;2023-07-02T11:38:48;2.05;;;1.80;;
7511;SDS011;9999;48.780;9.146;2023-07-02T11:41:16;3.35;;;2.75;;
7511;SDS011;9999;48.780;9.146;2023-07-02T11:43:43;3.72;;;2.00;;
7511;SDS011;9999;48.780;9.146;2023-07-02T11:46:10;4.63;;;2.88;;
7511;SDS011;9999;48.780;9.146;2023-07-02T11:48:37;3.72;;;3.20;;
7511;SDS011;9999;48.780;9.146;2023-07-02T11:51:04;5.18;;;2.20;;
7511;SDS011;9999;48.780;9.146;2023-07-02T11:53:31;3.33;;;2.28;;
7511;SDS011;9999;48.780;9.146;2023-07-02T11:55:58;3.72;;;2.65;;
7511;SDS011;9999;48.780;9.146;2023-07-02T11:58:26;6.47;;;3.28;;
7511;SDS011;9999;48.780;9.146;2023-07-02T12:00:53;2.92;;;2.72;;
7511;SDS011;9999;48.780;9.146;2023-07-02T12:03:19;3.45;;;2.28;;
7511;SDS011;9999;48.780;9.146;2023-07-02T12:05:46;4.55;;;2.15;;
7511;SDS011;9999;48.780;9.146;2023-07-02T12:08:13;1.52;;;1.48;;
7511;SDS011;9999;48.780;9.146;2023-07-02T12:10:40;3.95;;;3.20;;
7511;SDS011;9999;48.780;9.146;2023-07-02T12:13:07;5.38;;;2.65;;
7511;SDS011;9999;48.780;9.146;2023-07-02T12:15:35;5.05;;;1.90;;
7511;SDS011;9999;48.780;9.146;2023-07-02T12:18:01;4.88;;;2.67;;
7511;SDS011;9999;48.780;9.146;2023-07-02T12:20:28;6.63;;;3.30;;
7511;SDS011;9999;48.780;9.146;2023-07-02T12:22:55;6.68;;;4.03;;
7511;SDS011;9999;48.780;9.146;2023-07-02T12:25:22;3.60;;;2.67;;
7511;SDS011;9999;48.780;9.146;2023-07-02T12:27:49;8.18;;;2.70;;
7511;SDS011;9999;48.780;9.146;2023-07-02T12:30:16;3.28;;;2.38;;
7511;SDS011;9999;48.780;9.146;2023-07-02T12:32:45;2.78;;;2.50;;
7511;SDS011;9999;48.780;9.146;2023-07-02T12:35:12;3.97;;;3.33;;
7511;SDS011;9999;48.780;9.146;2023-07-02T12:37:42;3.58;;;2.35;;
7511;SDS011;9999;48.780;9.146;2023-07-02T12:40:10;2.45;;;2.08;;
7511;SDS011;9999;48.780;9.146;2023-07-02T12:42:37;5.05;;;3.28;;
7511;SDS011;9999;48.780;9.146;2023-07-02T12:45:05;2.75;;;2.10;;
7511;SDS011;9999;48.780;9.146;2023-07-02T12:47:32;11.65;;;3.67;;
7511;SDS011;9999;48.780;9.146;2023-07-02T12:50:00;4.38;;;2.88;;
7511;SDS011;9999;48.780;9.146;2023-07-02T12:52:28;4.60;;;2.72;;
7511;SDS011;9999;48.780;9.146;2023-07-02T12:54:55;6.20;;;3.50;;
7511;SDS011;9999;48.780;9.146;2023-07-02T12:57:22;3.63;;;2.28;;
7511;SDS011;9999;48.780;9.146;2023-07-02T12:59:49;4.95;;;3.92;;
7511;SDS011;9999;48.780;9.146;2023-07-02T13:02:15;7.05;;;3.53;;
7511;SDS011;9999;48.780;9.146;2023-07-02T13:04:42;4.13;;;2.65;;
7511;SDS011;9999;48.780;9.146;2023-07-02T13:07:11;4.70;;;2.58;;
7511;SDS011;9999;48.780;9.146;2023-07-02T13:09:37;2.88;;;2.28;;
7511;SDS011;9999;48.780;9.146;2023-07-02T13:12:04;4.13;;;2.65;;
7511;SDS011;9999;48.780;9.146;2023-07-02T13:14:32;2.92;;;2.15;;
7511;SDS011;9999;48.780;9.146;2023-07-02T13:16:59;2.70;;;2.47;;
7511;SDS011;9999;48.780;9.146;2023-07-02T13:19:28;4.95;;;2.40;;
7511;SDS011;9999;48.780;9.146;2023-07-02T13:21:55;3.45;;;2.83;;
7511;SDS011;9999;48.780;9.146;2023-07-02T13:24:23;2.63;;;1.83;;
7511;SDS011;9999;48.780;9.146;2023-07-02T13:26:50;3.42;;;2.45;;
7511;SDS011;9999;48.780;9.146;2023-07-02T13:29:17;5.18;;;2.70;;
7511;SDS011;9999;48.780;9.146;2023-07-02T13:31:44;7.50;;;2.97;;
7511;SDS011;9999;48.780;9.146;2023-07-02T13:34:11;5.20;;;2.47;;
7511;SDS011;9999;48.780;9.146;2023-07-02T13:36:37;19.98;;;2.28;;
7511;SDS011;9999;48.780;9.146;2023-07-02T13:39:04;3.70;;;2.78;;
7511;SDS011;9999;48.780;9.146;2023-07-02T13:41:33;2.17;;;1.98;;
7511;SDS011;9999;48.780;9.146;2023-07-02T13:44:00;4.82;;;3.40;;
7511;SDS011;9999;48.780;9.146;2023-07-02T13:46:27;4.50;;;2.53;;
7511;SDS011;9999;48.780;9.146;2023-07-02T13:48:53;2.35;;;2.17;;
7511;SDS011;9999;48.780;9.146;2023-07-02T13:51:20;3.17;;;2.38;;
7511;SDS011;9999;48.780;9.146;2023-07-02T13:53:49;1.60;;;1.48;;
7511;SDS011;9999;48.780;9.146;2023-07-02T13:56:15;3.97;;;2.42;;
7511;SDS011;9999;48.780;9.146;2023-07-02T13:58:47;4.82;;;2.75;;
7511;SDS011;9999;48.780;9.146;2023-07-02T14:01:25;6.22;;;2.65;;
7511;SDS011;9999;48.780;9.146;2023-07-02T14:03:52;3.58;;;3.28;;
7511;SDS011;9999;48.780;9.146;2023-07-02T14:06:19;3.85;;;2.35;;
7511;SDS011;9999;48.780;9.146;2023-07-02T14:08:46;2.55;;;2.40;;
7511;SDS011;9999;48.780;9.146;2023-07-02T14:11:13;5.38;;;2.55;;
7511;SDS011;9999;48.780;9.146;2023-07-02T14:13:40;2.60;;;2.33;;
7511;SDS011;9999;48.780;9.146;2023-07-02T14:16:08;4.25;;;2.83;;
7511;SDS011;9999;48.780;9.146;2023-07-02T14:18:35;4.03;;;2.55;;
7511;SDS011;9999;48.780;9.146;2023-07-02T14:21:02;4.03;;;3.10;;
7511;SDS011;9999;48.780;9.146;2023-07-02T14:23:29;2.20;;;2.03;;
7511;SDS011;9999;48.780;9.146;2023-07-02T14:25:56;6.75;;;2.13;;
7511;SDS011;9999;48.780;9.146;2023-07-02T14:28:22;2.83;;;2.03;;
7511;SDS011;9999;48.780;9.146;2023-07-02T14:30:55;4.85;;;3.05;;
7511;SDS011;9999;48.780;9.146;2023-07-02T14:33:24;3.22;;;2.33;;
7511;SDS011;9999;48.780;9.146;2023-07-02T14:35:51;3.47;;;1.90;;
7511;SDS011;9999;48.780;9.146;2023-07-02T14:38:18;3.92;;;1.88;;
7511;SDS011;9999;48.780;9.146;2023-07-02T14:40:45;2.67;;;1.73;;
7511;SDS011;9999;48.780;9.146;2023-07-02T14:43:13;11.23;;;2.55;;
7511;SDS011;9999;48.780;9.146;2023-07-02T14:45:44;4.28;;;3.03;;
7511;SDS011;9999;48.780;9.146;2023-07-02T14:48:13;5.90;;;4.05;;
7511;SDS011;9999;48.780;9.146;2023-07-02T14:50:45;4.20;;;2.47;;
7511;SDS011;9999;48.780;9.146;2023-07-02T14:53:18;4.57;;;2.58;;
7511;SDS011;9999;48.780;9.146;2023-07-02T14:55:46;4.40;;;2.70;;
7511;SDS011;9999;48.780;9.146;2023-07-02T14:58:14;2.83;;;2.55;;
7511;SDS011;9999;48.780;9.146;2023-07-02T15:00:43;6.28;;;2.85;;
7511;SDS011;9999;48.780;9.146;2023-07-02T15:03:11;3.63;;;2.10;;
7511;SDS011;9999;48.780;9.146;2023-07-02T15:05:38;3.95;;;3.00;;
7511;SDS011;9999;48.780;9.146;2023-07-02T15:08:07;7.32;;;3.78;;
7511;SDS011;9999;48.780;9.146;2023-07-02T15:10:37;5.00;;;2.63;;
7511;SDS011;9999;48.780;9.146;2023-07-02T15:13:04;2.65;;;2.15;;
7511;SDS011;9999;48.780;9.146;2023-07-02T15:15:31;4.78;;;2.35;;
7511;SDS011;9999;48.780;9.146;2023-07-02T15:17:57;6.38;;;1.42;;
7511;SDS011;9999;48.780;9.146;2023-07-02T15:20:24;5.05;;;2.42;;